^^
Datos históricos de la estación: Murcia-Puente Tocinos
Diario Informe para Noviembre 23, 2019 Unidades:  Métrico    Ingés   Ambas
Diario Semanal Mensual Anual
  Máxima: Mínima: Promedio:
Temperatura: 17.8 °C 11.2 °C 15.4 °C
Punto de rocio: 11.7 °C 0.9 °C 4 °C
Humedad: 97% 32.8% 49%
Velocidad viento: 29.1km/h 0km/h 14.8km/h
Racha viento: 61.2km/h - -
Viento- - SO
Presión: 1008.9 hPa 993.4 hPa -
Precipitación: 0.2 mm    
 
 
Tabla de datos para Noviembre 23, 2019
Hora Temperatura Punto de rocio Presión Viento Velocidad viento Racha viento Humedad Intensidad lluvia(por hora) Nubes
00:04 12.3 °C 11.7 °C 995.0 hPa SE 1.8 km/h 5.8 km/h 96% 0.0 mm
00:09 12.3 °C 11.7 °C 995.0 hPa Calm   9.3 km/h 96% 0.0 mm
00:14 12.3 °C 11.7 °C 994.7 hPa SE 2.2 km/h 9.7 km/h 96% 0.0 mm
00:19 12.3 °C 11.7 °C 994.7 hPa SE 3.2 km/h 5 km/h 96% 0.0 mm
00:24 12.3 °C 11.7 °C 994.7 hPa SSE 2.6 km/h 5.6 km/h 96% 0.0 mm
00:29 12.2 °C 11.6 °C 994.7 hPa SSO 2.2 km/h 4.8 km/h 96.1% 0.0 mm
00:34 12.3 °C 11.7 °C 994.7 hPa SSO 0.7 km/h 5.8 km/h 96.4% 0.0 mm
00:39 12.2 °C 11.5 °C 994.7 hPa Calm   6.4 km/h 96% 0.0 mm
00:44 12 °C 11.4 °C 994.6 hPa SSO 1.5 km/h 6.4 km/h 96% 0.0 mm
00:49 11.8 °C 11.2 °C 994.6 hPa Oeste 2.2 km/h 11.1 km/h 96% 0.0 mm
00:54 11.6 °C 11 °C 994.6 hPa SO 4.1 km/h 11.3 km/h 96% 0.0 mm
00:59 11.4 °C 10.8 °C 994.6 hPa SE 5 km/h 9.7 km/h 96.2% 0.0 mm
01:04 11.5 °C 11 °C 994.6 hPa OSO 3.8 km/h 8 km/h 97% 0.0 mm
01:09 11.5 °C 11.1 °C 994.6 hPa Oeste 3.2 km/h 8 km/h 97% 0.0 mm
01:14 11.5 °C 11.1 °C 994.3 hPa Oeste 2.6 km/h 4.7 km/h 97% 0.0 mm
01:19 11.4 °C 10.9 °C 994.3 hPa SO 2.2 km/h 7.4 km/h 96.4% 0.0 mm
01:24 11.3 °C 10.7 °C 994.5 hPa Oeste 2.7 km/h 8.4 km/h 96% 0.0 mm
01:29 11.2 °C 10.7 °C 994.5 hPa SO 2.9 km/h 8 km/h 96.4% 0.0 mm
01:34 11.3 °C 10.9 °C 994.5 hPa SSO 4.3 km/h 8 km/h 97% 0.0 mm
01:39 11.4 °C 10.9 °C 994.6 hPa SSO 5 km/h 9.5 km/h 97% 0.0 mm
01:44 11.5 °C 11.1 °C 994.6 hPa SSO 3.8 km/h 10.3 km/h 97% 0.0 mm
01:49 11.6 °C 11.2 °C 994.6 hPa SO 3.2 km/h 11.9 km/h 97% 0.0 mm
01:54 11.7 °C 11.2 °C 994.6 hPa SSO 6.7 km/h 17.2 km/h 97% 0.0 mm
01:59 12.1 °C 11.6 °C 994.6 hPa SSO 8.4 km/h 24.1 km/h 96.8% 0.0 mm
02:04 13.2 °C 11.5 °C 994.6 hPa SSO 12.3 km/h 27.8 km/h 89.5% 0.0 mm
02:09 14.2 °C 10.6 °C 994.6 hPa SSO 14 km/h 27.4 km/h 79.4% 0.0 mm
02:14 14.6 °C 9.9 °C 994.3 hPa Sur 14 km/h 27.8 km/h 73.8% 0.0 mm
02:19 15.1 °C 8.9 °C 994.3 hPa Sur 14 km/h 33.5 km/h 66.6% 0.0 mm
02:24 15.7 °C 8.2 °C 994.3 hPa Sur 16.1 km/h 33.8 km/h 60.9% 0.0 mm
02:29 16.3 °C 7.3 °C 994.3 hPa Sur 17.2 km/h 29.6 km/h 55.4% 0.0 mm
02:34 16.5 °C 7.2 °C 994.3 hPa Sur 16.5 km/h 29 km/h 54.3% 0.0 mm
02:39 16.6 °C 7.1 °C 994.4 hPa Sur 16.1 km/h 27.4 km/h 53.6% 0.0 mm
02:44 16.5 °C 7.3 °C 994.4 hPa Sur 15.2 km/h 24.1 km/h 54.6% 0.0 mm
02:49 16.2 °C 7 °C 994.4 hPa Sur 14.8 km/h 22.5 km/h 54.5% 0.0 mm
02:54 16.2 °C 6.8 °C 994.5 hPa Sur 14 km/h 22.5 km/h 54% 0.0 mm
02:59 16 °C 6.4 °C 994.5 hPa Sur 13.7 km/h 26.2 km/h 52.9% 0.0 mm
03:04 16.4 °C 5.9 °C 994.5 hPa SSE 12.7 km/h 25.9 km/h 50% 0.0 mm
03:09 16.4 °C 6 °C 994.5 hPa Sur 12.2 km/h 24.1 km/h 50% 0.0 mm
03:14 16.2 °C 5.9 °C 994.2 hPa SSE 12.2 km/h 22.5 km/h 50.6% 0.0 mm
03:19 15.9 °C 5.8 °C 994.2 hPa SSE 12.2 km/h 25.9 km/h 50.9% 0.0 mm
03:24 15.8 °C 5.8 °C 994.4 hPa SSE 13.2 km/h 25.7 km/h 51.5% 0.0 mm
03:29 15.7 °C 5.7 °C 994.4 hPa SSE 13.7 km/h 20.9 km/h 51.4% 0.0 mm
03:34 15.7 °C 5.6 °C 994.4 hPa Sur 11.9 km/h 20.4 km/h 51.1% 0.0 mm
03:39 15.6 °C 5.7 °C 994.4 hPa SSE 11.1 km/h 20.9 km/h 51.7% 0.0 mm
03:44 15.3 °C 5.8 °C 994.1 hPa Sur 10 km/h 14.8 km/h 53% 0.0 mm
03:49 15.1 °C 5.8 °C 994.1 hPa Sur 9.5 km/h 19 km/h 53.8% 0.0 mm
03:54 15.1 °C 5.6 °C 994.1 hPa SSO 10 km/h 25.9 km/h 53.2% 0.0 mm
03:59 15.5 °C 5.3 °C 993.6 hPa SO 10.3 km/h 28.2 km/h 50.8% 0.0 mm
04:04 15.9 °C 5.1 °C 993.6 hPa SSO 13.4 km/h 33.3 km/h 48.6% 0.0 mm
04:09 16.1 °C 5.1 °C 993.6 hPa SSO 14.8 km/h 33.8 km/h 48% 0.0 mm
04:14 16.1 °C 5.1 °C 993.4 hPa SSO 16.5 km/h 31.7 km/h 48% 0.0 mm
04:19 16.2 °C 5.1 °C 993.4 hPa SSO 17.2 km/h 32.2 km/h 48% 0.0 mm
04:24 16.1 °C 5.3 °C 993.6 hPa SSO 16.7 km/h 32.2 km/h 48.8% 0.0 mm
04:29 15.9 °C 5.4 °C 993.6 hPa SSO 16.4 km/h 27.4 km/h 49.8% 0.0 mm
04:34 15.8 °C 5.5 °C 993.6 hPa SSO 16.4 km/h 25.9 km/h 50.4% 0.0 mm
04:39 15.6 °C 5.6 °C 993.7 hPa SSO 16.4 km/h 25.9 km/h 51.3% 0.0 mm
04:44 15.3 °C 5.6 °C 993.7 hPa SSO 15.9 km/h 25.7 km/h 52.1% 0.0 mm
04:49 15.2 °C 5.7 °C 993.7 hPa SSO 15.6 km/h 22.5 km/h 53% 0.0 mm
04:54 15.1 °C 5.7 °C 994.1 hPa SO 12.1 km/h 17.7 km/h 53.6% 0.0 mm
04:59 14.8 °C 5.8 °C 994.1 hPa ONO 10.3 km/h 12.9 km/h 54.9% 0.0 mm
05:04 14.6 °C 6 °C 994.1 hPa ONO 8 km/h 11.3 km/h 56.3% 0.0 mm
05:09 14.3 °C 6.1 °C 994.8 hPa Oeste 6.9 km/h 9.7 km/h 57.5% 0.0 mm
05:14 14.1 °C 6.1 °C 994.8 hPa Oeste 5.7 km/h 15.6 km/h 58.7% 0.0 mm
05:19 13.8 °C 6.1 °C 994.8 hPa Oeste 5 km/h 18.3 km/h 59.7% 0.0 mm
05:24 13.9 °C 5.8 °C 995.4 hPa Oeste 8.4 km/h 26.2 km/h 58.1% 0.0 mm
05:29 14.5 °C 5.5 °C 995.4 hPa Oeste 10 km/h 27.8 km/h 54.8% 0.0 mm
05:34 15.1 °C 5.2 °C 995.4 hPa OSO 13.2 km/h 50.4 km/h 51.8% 0.0 mm
05:39 15.8 °C 5.1 °C 995.5 hPa OSO 14.8 km/h 49.9 km/h 49.1% 0.0 mm
05:44 15.9 °C 5.2 °C 995.5 hPa OSO 24.1 km/h 50.4 km/h 49% 0.0 mm
05:49 15.8 °C 5.3 °C 995.5 hPa OSO 28.6 km/h 49.9 km/h 49.5% 0.0 mm
05:54 15.6 °C 5.4 °C 995.7 hPa OSO 25.3 km/h 37 km/h 50.7% 0.0 mm
05:59 15.3 °C 5.4 °C 995.7 hPa OSO 23.7 km/h 27.8 km/h 51.9% 0.0 mm
06:04 15.2 °C 5.5 °C 995.7 hPa SO 16.9 km/h 27.4 km/h 52.4% 0.0 mm
06:09 15.1 °C 5.5 °C 995.7 hPa SO 14 km/h 21.7 km/h 53% 0.0 mm
06:14 15 °C 5.5 °C 995.1 hPa SO 12.8 km/h 25.9 km/h 53% 0.0 mm
06:19 14.9 °C 5.5 °C 995.1 hPa OSO 12.2 km/h 29.6 km/h 53.3% 0.0 mm
06:24 14.8 °C 5.6 °C 995.2 hPa SO 13.2 km/h 29 km/h 54% 0.0 mm
06:29 14.7 °C 5.7 °C 995.2 hPa SO 13.7 km/h 20.9 km/h 55% 0.0 mm
06:34 14.6 °C 5.7 °C 995.2 hPa SSO 13.3 km/h 22.2 km/h 55% 0.0 mm
06:39 14.6 °C 5.6 °C 995.4 hPa SSO 13 km/h 25.9 km/h 55% 0.0 mm
06:44 14.6 °C 5.7 °C 995.4 hPa SO 14.8 km/h 29.8 km/h 55% 0.0 mm
06:49 14.6 °C 5.6 °C 995.4 hPa SO 15.6 km/h 30.6 km/h 54.9% 0.0 mm
06:54 14.6 °C 5.6 °C 995.4 hPa SO 15.6 km/h 33.8 km/h 54.7% 0.0 mm
06:59 14.4 °C 5.5 °C 994.8 hPa SO 15.6 km/h 33.8 km/h 55.2% 0.0 mm
07:04 14.3 °C 5.6 °C 994.8 hPa SO 14.3 km/h 29.8 km/h 56% 0.0 mm
07:09 14.2 °C 5.6 °C 995.5 hPa SO 13.7 km/h 35.2 km/h 56% 0.0 mm
07:14 14.1 °C 5.6 °C 995.5 hPa SO 15.3 km/h 35.4 km/h 56.4% 0.0 mm
07:19 13.9 °C 5.6 °C 995.5 hPa SO 16.1 km/h 27.4 km/h 57% 0.0 mm
07:24 13.8 °C 5.5 °C 995.6 hPa SO 11.7 km/h 20.9 km/h 57.1% 0.0 mm
07:29 13.7 °C 5.6 °C 995.6 hPa ONO 9.5 km/h 9.7 km/h 58% 0.0 mm
07:34 13.6 °C 5.6 °C 995.6 hPa ONO 5.1 km/h 6.4 km/h 58.3% 0.0 mm
07:39 13.4 °C 5.6 °C 995.8 hPa ONO 2.9 km/h 7.4 km/h 59% 0.0 mm
07:44 13.4 °C 5.6 °C 995.8 hPa SSO 2.5 km/h 9.5 km/h 59.2% 0.0 mm
07:49 13.3 °C 5.7 °C 995.8 hPa SE 2.2 km/h 9.7 km/h 60.2% 0.0 mm
07:54 13.1 °C 5.8 °C 995.8 hPa SE 3.3 km/h 8 km/h 61% 0.0 mm
07:59 13.1 °C 5.7 °C 995.7 hPa SE 3.9 km/h 8.4 km/h 61% 0.0 mm
08:04 13 °C 5.8 °C 995.7 hPa SE 4.6 km/h 11.1 km/h 61.6% 0.0 mm
08:09 12.9 °C 5.8 °C 996.1 hPa SE 5 km/h 11.3 km/h 62% 0.0 mm
08:14 12.9 °C 5.8 °C 996.1 hPa ESE 6.3 km/h 11.1 km/h 62% 0.0 mm
08:19 12.9 °C 5.8 °C 996.1 hPa SSE 6.9 km/h 11.3 km/h 62% 0.0 mm
08:24 13 °C 5.6 °C 996.5 hPa SSO 6.6 km/h 14.8 km/h 60.9% 0.0 mm
08:29 13.3 °C 5.6 °C 996.5 hPa SO 6.5 km/h 17.2 km/h 59.4% 0.0 mm
08:34 13.6 °C 5.3 °C 996.5 hPa SO 8.8 km/h 28.6 km/h 57.4% 0.0 mm
08:39 14 °C 4.7 °C 996.6 hPa SO 10 km/h 33.3 km/h 53.2% 0.0 mm
08:44 14.5 °C 4.2 °C 996.6 hPa SO 15.7 km/h 43.1 km/h 50.3% 0.0 mm
08:49 14.7 °C 4.1 °C 996.6 hPa SO 18.4 km/h 43.5 km/h 49% 0.0 mm
08:54 14.8 °C 3.8 °C 996.6 hPa SO 20.1 km/h 37.8 km/h 47.6% 0.0 mm
08:59 14.9 °C 3.6 °C 996.6 hPa SO 20.9 km/h 41.2 km/h 46.6% 0.2 mm
09:04 15.1 °C 3.5 °C 996.6 hPa SO 21.7 km/h 41.8 km/h 45.7% 0.2 mm
09:09 15.1 °C 3.7 °C 996.8 hPa OSO 22.1 km/h 33.8 km/h 46.7% 0.2 mm
09:14 14.9 °C 3.8 °C 996.8 hPa Oeste 18.1 km/h 29.6 km/h 47.3% 0.2 mm
09:19 14.9 °C 3.7 °C 996.8 hPa OSO 16.1 km/h 29.6 km/h 47.1% 0.2 mm
09:24 15 °C 3.6 °C 997.2 hPa OSO 16.3 km/h 34.3 km/h 46.5% 0.2 mm
09:29 15.2 °C 3.6 °C 997.2 hPa OSO 16.4 km/h 35.2 km/h 45.9% 0.2 mm
09:34 15.3 °C 3.4 °C 997.2 hPa Oeste 18.8 km/h 35.4 km/h 45% 0.2 mm
09:39 15.3 °C 3.3 °C 997.5 hPa Oeste 19.8 km/h 39.6 km/h 44.6% 0.2 mm
09:44 15.4 °C 3.5 °C 997.5 hPa Oeste 19.8 km/h 40.2 km/h 44.8% 0.2 mm
09:49 15.6 °C 3.3 °C 997.5 hPa Oeste 19.8 km/h 52.1 km/h 43.9% 0.2 mm
09:54 15.7 °C 3 °C 997.6 hPa OSO 21.1 km/h 51.8 km/h 42.5% 0.2 mm
09:59 15.8 °C 3 °C 997.6 hPa OSO 21.7 km/h 51.5 km/h 42.3% 0.2 mm
10:04 15.9 °C 3 °C 997.6 hPa Oeste 25.5 km/h 51.5 km/h 42.1% 0.0 mm
10:09 15.9 °C 3 °C 997.6 hPa Oeste 27 km/h 61.2 km/h 42% 0.0 mm
10:14 15.9 °C 3.2 °C 997.6 hPa OSO 28.5 km/h 61.2 km/h 42.6% 0.0 mm
10:19 15.9 °C 3.4 °C 997.6 hPa OSO 29.1 km/h 51.5 km/h 43% 0.0 mm
10:24 16 °C 3.1 °C 997.9 hPa OSO 24.2 km/h 52.1 km/h 42.1% 0.0 mm
10:29 16.1 °C 3.2 °C 997.9 hPa OSO 21.7 km/h 51.5 km/h 42% 0.0 mm
10:34 16.2 °C 3.3 °C 997.9 hPa OSO 23.6 km/h 45.1 km/h 42% 0.0 mm
10:39 16.2 °C 3.2 °C 998.5 hPa Oeste 24.5 km/h 40.7 km/h 41.8% 0.0 mm
10:44 16.3 °C 3.3 °C 998.5 hPa OSO 22.6 km/h 40.2 km/h 42% 0.0 mm
10:49 16.4 °C 3.4 °C 998.5 hPa OSO 21.7 km/h 44.9 km/h 41.8% 0.0 mm
10:54 16.4 °C 3.4 °C 998.5 hPa OSO 23.5 km/h 45.1 km/h 41.9% 0.0 mm
10:59 16.5 °C 3.4 °C 998.3 hPa Oeste 24.5 km/h 43.1 km/h 41.5% 0.0 mm
11:04 16.6 °C 3.3 °C 998.3 hPa Oeste 23.1 km/h 46.3 km/h 41% 0.0 mm
11:09 16.7 °C 3.3 °C 998.9 hPa OSO 22.5 km/h 46.7 km/h 40.8% 0.0 mm
11:14 16.8 °C 3 °C 998.9 hPa OSO 23.1 km/h 40.2 km/h 39.6% 0.0 mm
11:19 16.9 °C 3 °C 998.9 hPa OSO 23.3 km/h 41.2 km/h 39.3% 0.0 mm
11:24 17 °C 2.7 °C 999.4 hPa OSO 22.8 km/h 41.8 km/h 38.2% 0.0 mm
11:29 17.1 °C 2.3 °C 999.4 hPa OSO 22.5 km/h 40.2 km/h 37.1% 0.0 mm
11:34 17.2 °C 2.4 °C 999.4 hPa OSO 20.2 km/h 38.6 km/h 37% 0.0 mm
11:39 17.3 °C 2.2 °C 999.5 hPa OSO 19 km/h 34.3 km/h 36.5% 0.0 mm
11:44 17.3 °C 2.4 °C 999.5 hPa OSO 18.6 km/h 36.2 km/h 36.8% 0.0 mm
11:49 17.3 °C 2.4 °C 999.5 hPa OSO 18.4 km/h 37.8 km/h 36.9% 0.0 mm
11:54 17.4 °C 2.2 °C 999.6 hPa OSO 20.1 km/h 38.9 km/h 36% 0.0 mm
11:59 17.4 °C 2.3 °C 999.6 hPa OSO 20.9 km/h 41.2 km/h 36.3% 0.0 mm
12:04 17.4 °C 2.1 °C 999.6 hPa OSO 21.7 km/h 41.8 km/h 35.9% 0.0 mm
12:09 17.5 °C 2.4 °C 999.8 hPa OSO 22.1 km/h 40.2 km/h 36.4% 0.0 mm
12:14 17.6 °C 2.6 °C 999.8 hPa Oeste 19.5 km/h 53.8 km/h 36.7% 0.0 mm
12:19 17.5 °C 2.5 °C 999.8 hPa OSO 18.4 km/h 53.1 km/h 36.8% 0.0 mm
12:24 17.4 °C 2.5 °C 1000.0 hPa OSO 21.6 km/h 50.1 km/h 36.9% 0.0 mm
12:29 17.5 °C 2.5 °C 1000.0 hPa OSO 23.3 km/h 48.3 km/h 36.7% 0.0 mm
12:34 17.4 °C 2.2 °C 1000.0 hPa Oeste 22.8 km/h 55 km/h 36.1% 0.0 mm
12:39 17.2 °C 2.3 °C 1000.0 hPa Oeste 22.5 km/h 56.3 km/h 36.7% 0.0 mm
12:44 17.2 °C 2.2 °C 1000.0 hPa Oeste 25.8 km/h 56.3 km/h 36.6% 0.0 mm
12:49 17.2 °C 2.4 °C 1000.0 hPa Oeste 27.4 km/h 48.3 km/h 36.9% 0.0 mm
12:54 17.3 °C 2.5 °C 1000.3 hPa Oeste 26.6 km/h 48.1 km/h 37% 0.0 mm
12:59 17.6 °C 2.7 °C 1000.3 hPa Oeste 26.2 km/h 48.3 km/h 37% 0.0 mm
13:04 17.6 °C 2.5 °C 1000.3 hPa Oeste 22.5 km/h 46.7 km/h 36.4% 0.0 mm
13:09 17.5 °C 2.3 °C 1000.6 hPa Oeste 20.9 km/h 46.8 km/h 36.2% 0.0 mm
13:14 17.2 °C 2.3 °C 1000.6 hPa Oeste 22.5 km/h 51.8 km/h 36.7% 0.0 mm
13:19 17 °C 2.1 °C 1000.6 hPa Oeste 23.3 km/h 51.5 km/h 36.8% 0.0 mm
13:24 16.9 °C 2.1 °C 1000.7 hPa Oeste 26.6 km/h 48.3 km/h 37% 0.0 mm
13:29 16.8 °C 2.1 °C 1000.7 hPa Oeste 28.2 km/h 40.2 km/h 37.2% 0.0 mm
13:34 16.8 °C 2.3 °C 1000.7 hPa Oeste 24 km/h 38.9 km/h 37.7% 0.0 mm
13:39 16.8 °C 2.1 °C 1000.7 hPa Oeste 22.1 km/h 50.1 km/h 37.2% 0.0 mm
13:44 16.8 °C 2.1 °C 1000.6 hPa Oeste 22.4 km/h 49.9 km/h 37.2% 0.0 mm
13:49 16.9 °C 2.1 °C 1000.6 hPa Oeste 22.5 km/h 45.7 km/h 37% 0.0 mm
13:54 16.9 °C 2.1 °C 1000.6 hPa Oeste 22 km/h 46.7 km/h 37% 0.0 mm
13:59 16.9 °C 2.1 °C 1000.5 hPa Oeste 21.7 km/h 44.3 km/h 37% 0.0 mm
14:04 16.9 °C 2.1 °C 1000.5 hPa Oeste 23.1 km/h 45.1 km/h 37% 0.0 mm
14:09 16.9 °C 1.8 °C 1000.6 hPa Oeste 23.7 km/h 46.3 km/h 36.1% 0.0 mm
14:14 16.9 °C 1.8 °C 1000.6 hPa Oeste 24.6 km/h 46.8 km/h 36% 0.0 mm
14:19 17.1 °C 1.9 °C 1000.6 hPa Oeste 25.1 km/h 46.7 km/h 36% 0.0 mm
14:24 17.4 °C 2.4 °C 1000.6 hPa Oeste 24.1 km/h 45.1 km/h 36.4% 0.0 mm
14:29 17.6 °C 2.4 °C 1000.6 hPa Oeste 23.7 km/h 35.9 km/h 36% 0.0 mm
14:34 17.7 °C 2.4 °C 1000.6 hPa ONO 20.5 km/h 35.4 km/h 36% 0.0 mm
14:39 17.7 °C 1.8 °C 1000.9 hPa Oeste 19 km/h 37.8 km/h 34.5% 0.0 mm
14:44 17.7 °C 1.8 °C 1000.9 hPa Oeste 20.8 km/h 37 km/h 34.4% 0.0 mm
14:49 17.7 °C 1.3 °C 1000.9 hPa Oeste 21.7 km/h 51.8 km/h 33.3% 0.0 mm
14:54 17.6 °C 1.1 °C 1000.9 hPa ONO 24.1 km/h 51.5 km/h 33% 0.0 mm
14:59 17.6 °C 1.4 °C 1000.9 hPa ONO 25.1 km/h 46.3 km/h 33.6% 0.0 mm
15:04 17.6 °C 1.5 °C 1000.9 hPa Oeste 24.1 km/h 46.7 km/h 33.9% 0.0 mm
15:09 17.6 °C 1.5 °C 1000.9 hPa Oeste 23.7 km/h 38.6 km/h 34% 0.0 mm
15:14 17.7 °C 1.4 °C 1000.9 hPa Oeste 22.6 km/h 40.7 km/h 33.4% 0.0 mm
15:19 17.8 °C 1.3 °C 1000.9 hPa OSO 22.1 km/h 40.2 km/h 33% 0.0 mm
15:24 17.8 °C 1.2 °C 1001.2 hPa Oeste 21.3 km/h 40.7 km/h 32.8% 0.0 mm
15:29 17.8 °C 1.3 °C 1001.2 hPa OSO 20.9 km/h 40.2 km/h 33% 0.0 mm
15:34 17.8 °C 1.3 °C 1001.2 hPa Oeste 18.4 km/h 30.6 km/h 33% 0.0 mm
15:39 17.6 °C 1.1 °C 1001.6 hPa Oeste 17.2 km/h 38.1 km/h 33% 0.0 mm
15:44 17.5 °C 1.1 °C 1001.6 hPa OSO 19 km/h 38.9 km/h 33% 0.0 mm
15:49 17.4 °C 1 °C 1001.6 hPa Oeste 19.8 km/h 40.7 km/h 33% 0.0 mm
15:54 17.4 °C 0.9 °C 1002.0 hPa Oeste 20.6 km/h 40.2 km/h 33% 0.0 mm
15:59 17.4 °C 0.9 °C 1002.0 hPa Oeste 20.9 km/h 41.2 km/h 33% 0.0 mm
16:04 17.4 °C 1.2 °C 1002.0 hPa ONO 20.9 km/h 41.8 km/h 33.7% 0.0 mm
16:09 17.4 °C 1.1 °C 1002.1 hPa Oeste 20.9 km/h 40.2 km/h 33.4% 0.0 mm
16:14 17.4 °C 1.4 °C 1002.1 hPa Oeste 19.2 km/h 33.3 km/h 34% 0.0 mm
16:19 17.6 °C 1.2 °C 1002.1 hPa Oeste 18.4 km/h 44.9 km/h 33.2% 0.0 mm
16:24 17.6 °C 1.5 °C 1002.4 hPa Oeste 19.6 km/h 45.1 km/h 33.8% 0.0 mm
16:29 17.6 °C 1.2 °C 1002.4 hPa Oeste 20.1 km/h 35.9 km/h 33.2% 0.0 mm
16:34 17.5 °C 1.1 °C 1002.4 hPa Oeste 18.2 km/h 40.7 km/h 33.1% 0.0 mm
16:39 17.4 °C 1.3 °C 1002.6 hPa Oeste 17.2 km/h 40.7 km/h 33.8% 0.0 mm
16:44 17.4 °C 1.3 °C 1002.6 hPa Oeste 19.7 km/h 44.4 km/h 33.9% 0.0 mm
16:49 17.3 °C 1.3 °C 1002.6 hPa ONO 20.9 km/h 45.1 km/h 34% 0.0 mm
16:54 17.3 °C 1.3 °C 1002.8 hPa Oeste 22 km/h 40.2 km/h 34% 0.0 mm
16:59 17.3 °C 1.5 °C 1002.8 hPa Oeste 22.5 km/h 33.8 km/h 34.6% 0.0 mm
17:04 17.3 °C 1.5 °C 1002.8 hPa Oeste 18.8 km/h 33.3 km/h 34.6% 0.0 mm
17:09 17.2 °C 1.6 °C 1003.2 hPa Oeste 17.2 km/h 33.8 km/h 35% 0.0 mm
17:14 17.2 °C 1.6 °C 1003.2 hPa Oeste 15 km/h 29.8 km/h 35% 0.0 mm
17:19 17.1 °C 1.6 °C 1003.2 hPa Oeste 14 km/h 34.6 km/h 35.4% 0.0 mm
17:24 16.9 °C 1.5 °C 1003.5 hPa Oeste 15.6 km/h 35.4 km/h 35.3% 0.0 mm
17:29 16.9 °C 1.7 °C 1003.5 hPa OSO 16.4 km/h 27.8 km/h 36% 0.0 mm
17:34 16.8 °C 1.6 °C 1003.5 hPa OSO 15.9 km/h 27.8 km/h 36% 0.0 mm
17:39 16.7 °C 1.9 °C 1003.9 hPa OSO 15.6 km/h 26.2 km/h 36.9% 0.0 mm
17:44 16.7 °C 1.9 °C 1003.9 hPa SO 15.6 km/h 31.5 km/h 37% 0.0 mm
17:49 16.6 °C 1.8 °C 1003.9 hPa OSO 15.6 km/h 34.3 km/h 37% 0.0 mm
17:54 16.5 °C 1.8 °C 1004.2 hPa OSO 17.2 km/h 34.3 km/h 37% 0.0 mm
17:59 16.5 °C 1.7 °C 1004.2 hPa OSO 18 km/h 34.3 km/h 37% 0.0 mm
18:04 16.5 °C 1.7 °C 1004.2 hPa SO 18.7 km/h 33.8 km/h 37% 0.0 mm
18:09 16.4 °C 1.7 °C 1004.5 hPa OSO 19 km/h 35.2 km/h 37% 0.0 mm
18:14 16.3 °C 1.7 °C 1004.5 hPa SO 15.6 km/h 35.4 km/h 37.3% 0.0 mm
18:19 16.2 °C 1.7 °C 1004.5 hPa SO 14 km/h 33.5 km/h 37.4% 0.0 mm
18:24 16.3 °C 1.7 °C 1004.7 hPa SO 15.7 km/h 33.8 km/h 37.5% 0.0 mm
18:29 16.2 °C 1.8 °C 1004.7 hPa SO 16.4 km/h 29.6 km/h 38% 0.0 mm
18:34 16.2 °C 1.8 °C 1004.7 hPa SO 16.2 km/h 29.8 km/h 38% 0.0 mm
18:39 16.2 °C 1.8 °C 1005.0 hPa SSO 16.1 km/h 30.6 km/h 38% 0.0 mm
18:44 16.1 °C 1.7 °C 1005.0 hPa SO 15.2 km/h 26.2 km/h 38% 0.0 mm
18:49 15.9 °C 1.6 °C 1005.0 hPa SO 14.8 km/h 27.8 km/h 38% 0.0 mm
18:54 15.9 °C 1.6 °C 1005.4 hPa SO 14.8 km/h 29.6 km/h 38.1% 0.0 mm
18:59 15.8 °C 1.8 °C 1005.4 hPa SO 14.8 km/h 29 km/h 38.9% 0.0 mm
19:04 15.7 °C 1.8 °C 1005.4 hPa SO 12.2 km/h 25.7 km/h 39% 0.0 mm
19:09 15.7 °C 1.8 °C 1005.6 hPa SO 11.1 km/h 24.1 km/h 39% 0.0 mm
19:14 15.7 °C 1.8 °C 1005.6 hPa SO 11.6 km/h 19.3 km/h 39% 0.0 mm
19:19 15.6 °C 1.7 °C 1005.6 hPa SO 11.9 km/h 22.2 km/h 39% 0.0 mm
19:24 15.6 °C 1.7 °C 1005.8 hPa SO 11.4 km/h 22.5 km/h 39% 0.0 mm
19:29 15.5 °C 1.6 °C 1005.8 hPa SO 11.1 km/h 31.5 km/h 39% 0.0 mm
19:34 15.5 °C 1.6 °C 1005.8 hPa SO 10.6 km/h 32.2 km/h 39% 0.0 mm
19:39 15.6 °C 1.7 °C 1006.0 hPa Oeste 10.3 km/h 19 km/h 39% 0.0 mm
19:44 15.5 °C 1.6 °C 1006.0 hPa Oeste 9.8 km/h 25.9 km/h 39% 0.0 mm
19:49 15.6 °C 1.7 °C 1006.0 hPa OSO 9.5 km/h 27.8 km/h 39% 0.0 mm
19:54 15.6 °C 1.7 °C 1006.0 hPa Oeste 12.3 km/h 33.5 km/h 39% 0.0 mm
19:59 15.6 °C 1.7 °C 1006.0 hPa OSO 13.7 km/h 33.8 km/h 39% 0.0 mm
20:04 15.4 °C 1.6 °C 1006.0 hPa Oeste 15 km/h 29.6 km/h 39.2% 0.0 mm
20:09 15.4 °C 1.8 °C 1006.1 hPa OSO 15.6 km/h 27.4 km/h 40% 0.0 mm
20:14 15.3 °C 1.8 °C 1006.1 hPa Oeste 15 km/h 25.7 km/h 40% 0.0 mm
20:19 15.3 °C 1.8 °C 1006.1 hPa Oeste 14.8 km/h 24.1 km/h 40% 0.0 mm
20:24 15.2 °C 1.7 °C 1006.3 hPa Oeste 14.1 km/h 25.9 km/h 40% 0.0 mm
20:29 15.2 °C 1.7 °C 1006.3 hPa Oeste 13.7 km/h 25.7 km/h 40% 0.0 mm
20:34 15.1 °C 1.7 °C 1006.3 hPa Oeste 12.7 km/h 24.1 km/h 40.1% 0.0 mm
20:39 15 °C 1.9 °C 1006.6 hPa Oeste 12.2 km/h 20.9 km/h 41% 0.0 mm
20:44 14.8 °C 1.7 °C 1006.6 hPa OSO 10.9 km/h 19.3 km/h 41% 0.0 mm
20:49 14.8 °C 1.8 °C 1006.6 hPa OSO 10.3 km/h 19.3 km/h 41.5% 0.0 mm
20:54 14.7 °C 1.9 °C 1006.9 hPa OSO 9 km/h 15.6 km/h 42% 0.0 mm
20:59 14.7 °C 1.9 °C 1006.9 hPa SO 8.4 km/h 16.7 km/h 42% 0.0 mm
21:04 14.6 °C 1.8 °C 1006.9 hPa SO 8.6 km/h 16.1 km/h 42% 0.0 mm
21:09 14.6 °C 1.8 °C 1007.0 hPa SSO 8.7 km/h 14.5 km/h 42% 0.0 mm
21:14 14.6 °C 1.9 °C 1007.0 hPa SE 7.2 km/h 11.3 km/h 42.1% 0.0 mm
21:19 14.4 °C 2 °C 1007.0 hPa Oeste 6.5 km/h 11.9 km/h 43% 0.0 mm
21:24 14.4 °C 2.1 °C 1007.4 hPa OSO 5.5 km/h 14.8 km/h 43.6% 0.0 mm
21:29 14.3 °C 2.3 °C 1007.4 hPa Oeste 5 km/h 19.8 km/h 44% 0.0 mm
21:34 14.3 °C 2.2 °C 1007.4 hPa Oeste 6 km/h 20.9 km/h 44% 0.0 mm
21:39 14.3 °C 2.2 °C 1007.5 hPa Oeste 6.5 km/h 20.9 km/h 44% 0.0 mm
21:44 14.4 °C 2.3 °C 1007.5 hPa Oeste 8.5 km/h 20.9 km/h 44% 0.0 mm
21:49 14.3 °C 2.2 °C 1007.5 hPa ONO 9.5 km/h 20.9 km/h 44% 0.0 mm
21:54 14.3 °C 2.5 °C 1007.6 hPa ONO 8.9 km/h 16.7 km/h 45% 0.0 mm
21:59 14.2 °C 2.4 °C 1007.6 hPa Oeste 8.7 km/h 14.8 km/h 45% 0.0 mm
22:04 14.2 °C 2.4 °C 1007.6 hPa Oeste 7.1 km/h 20.4 km/h 45% 0.0 mm
22:09 14.2 °C 2.4 °C 1007.6 hPa Oeste 6.5 km/h 20.9 km/h 45% 0.0 mm
22:14 14.2 °C 2.6 °C 1007.6 hPa Oeste 6.8 km/h 19.3 km/h 45.8% 0.0 mm
22:19 14.1 °C 2.7 °C 1007.6 hPa OSO 6.9 km/h 20.9 km/h 46% 0.0 mm
22:24 14.2 °C 2.7 °C 1007.6 hPa OSO 8.6 km/h 22.5 km/h 46% 0.0 mm
22:29 14.3 °C 2.8 °C 1007.5 hPa SO 9.5 km/h 22.5 km/h 46% 0.0 mm
22:34 14.2 °C 2.7 °C 1007.5 hPa SSO 8.9 km/h 17.7 km/h 46% 0.0 mm
22:39 14.1 °C 2.6 °C 1007.9 hPa SSE 8.7 km/h 14.8 km/h 46% 0.0 mm
22:44 13.6 °C 2.3 °C 1007.9 hPa SE 8 km/h 17.2 km/h 46.5% 0.0 mm
22:49 13.3 °C 2.2 °C 1007.9 hPa SSE 7.6 km/h 17.7 km/h 47% 0.0 mm
22:54 13.3 °C 2.2 °C 1008.0 hPa SSE 10 km/h 18.5 km/h 47% 0.0 mm
22:59 13.3 °C 2.2 °C 1008.0 hPa SE 11.1 km/h 19.3 km/h 47% 0.0 mm
23:04 13.3 °C 2.3 °C 1008.0 hPa SSE 10.5 km/h 23.3 km/h 47% 0.0 mm
23:09 13.6 °C 2.3 °C 1008.4 hPa SSE 10.3 km/h 29.6 km/h 46.3% 0.0 mm
23:14 13.8 °C 2.4 °C 1008.4 hPa SSE 13.9 km/h 29.8 km/h 46% 0.0 mm
23:19 13.8 °C 2.4 °C 1008.4 hPa SSE 15.6 km/h 30.6 km/h 46% 0.0 mm
23:24 13.9 °C 2.4 °C 1008.8 hPa SSE 17.3 km/h 29 km/h 45.8% 0.0 mm
23:29 13.9 °C 2.2 °C 1008.8 hPa Sur 18 km/h 25.9 km/h 45% 0.0 mm
23:34 14 °C 2.2 °C 1008.8 hPa Sur 15.3 km/h 25.7 km/h 45% 0.0 mm
23:39 14.1 °C 2.1 °C 1008.9 hPa SSO 14 km/h 16.1 km/h 44.3% 0.0 mm
23:44 14 °C 2 °C 1008.9 hPa SSO 10.4 km/h 16.7 km/h 44.2% 0.0 mm
23:49 13.9 °C 2.1 °C 1008.9 hPa Sur 8.7 km/h 16.1 km/h 45% 0.0 mm
23:54 13.8 °C 2.1 °C 1008.9 hPa SSO 9.6 km/h 24.1 km/h 45% 0.0 mm
23:59 13.9 °C 2.2 °C 1008.8 hPa SSO 10 km/h 24.1 km/h 45% 0.0 mm
Murcia-Puente Tocinos, España
Compliments of Weather Underground - 3 mb

La estación de MeteoMurcia.com, publica sus datos en los siguientes proyectos:

Weather Underground PWS IMURCIAP2 Meteoclimatic www.awekas.at

W3Counter
Web Analytics